Station: Evans Head  

  Atmospheric Gas Attenuation - ITU Rec 676-11   ----------------- dB/100km -----------------
Date Time Temp RH % AH g/m3 Dew Point Wind Direction Speed kph Gust kph Barometer mB Rainfall Since 9am 24GHz 47GHz 76GHz 122GHz 134GHz 241GHz
08/05 12:30 19.2 34 5.61 3 7 15 1018.3 0 13.0 20.3 26.9 69.8 57.4 195.2
08/05 12:20 18.9 33 5.35 2.3 9 11 1018.4 0 12.5 20.0 26.1 67.8 54.7 185.9
08/05 12:10 18.3 33 5.16 1.8 9 13 1018.5 0 12.1 19.9 25.6 66.6 53.1 179.9
08/05 12:00 19.3 33 5.47 2.6 9 17 1018.7 0 12.8 20.1 26.4 68.6 55.8 189.7
08/05 11:50 18.6 37 5.89 3.6 4 6 1018.8 0 13.7 20.8 28.0 72.9 61.0 207.7
08/05 11:40 18.4 35 5.5 2.7 6 7 1018.9 0 12.8 20.3 26.8 69.6 56.8 192.9
08/05 11:30 18.8 40 6.44 4.9 9 13 1019.3 0 14.8 21.5 29.8 77.8 67.1 229.2
08/05 11:20 17.6 38 5.7 3.1 7 9 1019.5 0 13.3 20.8 27.7 72.1 59.6 202.8
08/05 11:10 17.8 35 5.31 2.2 6 6 1019.6 0 12.5 20.2 26.3 68.4 55.1 187.0
08/05 11:00 18.3 41 6.41 4.8 9 13 1019.8 0 14.8 21.6 29.9 78.1 67.2 229.4
08/05 10:50 18.3 39 6.1 4.1 9 11 1020 0 14.1 21.2 28.9 75.2 63.6 217.0
08/05 10:40 17.6 40 6 3.9 7 9 1020.2 0 13.9 21.2 28.8 75.0 63.0 214.9
08/05 10:30 17.5 42 6.26 4.5 9 17 1020.3 0 14.5 21.6 29.7 77.5 66.1 225.7
08/05 10:20 17.3 43 6.33 4.6 9 11 1020.3 0 14.6 21.8 30.0 78.3 67.1 229.1
08/05 10:10 15.7 42 5.62 2.8 7 7 1020.4 0 13.2 21.1 28.1 73.2 60.1 204.5
08/05 10:00 16.2 42 5.79 3.3 9 17 1020.4 0 13.5 21.3 28.5 74.3 61.7 210.1
08/05 09:50 16 44 5.99 3.8 9 11 1020.4 0 14.0 21.6 29.3 76.4 64.2 218.8
08/05 09:40 15.4 44 5.78 3.2 7 11 1020.4 0 13.5 21.4 28.8 74.9 62.2 211.8
08/05 09:30 14.7 37 4.66 0.2 13 20 1020.4 0 11.2 20.0 25.1 65.2 49.9 168.3
08/05 09:20 14.4 38 4.7 0.3 15 20 1020.5 0 11.3 20.1 25.4 65.8 50.5 170.6
08/05 09:10 14.3 38 4.67 0.2 11 13 1020.4 0 11.2 20.1 25.3 65.6 50.3 169.6
08/05 09:00 14.3 43 5.28 1.9 9 19 1020.3 0 12.5 21.0 27.4 71.2 57.2 194.1
08/05 08:50 13.6 39 4.59 -0.1 13 17 1020.4 0 11.1 20.2 25.2 65.4 49.8 167.8
08/05 08:40 13.6 42 4.94 0.9 7 9 1020.5 0 11.8 20.7 26.4 68.7 53.8 181.9
08/05 08:30 13.1 42 4.79 0.5 11 20 1020.5 0 11.5 20.6 26.1 67.7 52.4 176.9
08/05 08:20 12.7 43 4.79 0.5 11 15 1020.3 0 11.5 20.6 26.2 68.0 52.6 177.8
08/05 08:10 12.6 42 4.65 0 9 13 1020.4 0 11.2 20.5 25.7 66.8 51.1 172.3
08/05 08:00 12.1 45 4.83 0.5 7 13 1020.3 0 11.6 20.8 26.5 68.9 53.5 180.7
08/05 07:50 11.6 46 4.78 0.4 7 9 1020.2 0 11.5 20.9 26.5 68.8 53.3 179.7
08/05 07:40 11.2 47 4.76 0.3 11 13 1020.2 0 11.5 20.9 26.6 69.0 53.3 179.8
08/05 07:30 10.6 46 4.49 -0.5 11 20 1020.2 0 11.0 20.7 25.8 66.9 50.5 169.9
08/05 07:20 10.4 45 4.34 -1 13 17 1020.1 0 10.7 20.5 25.3 65.6 48.9 164.1
08/05 07:10 10.3 44 4.21 -1.4 13 17 1019.9 0 10.4 20.3 24.9 64.5 47.4 158.9
08/05 07:00 10.1 43 4.07 -1.9 13 20 1019.9 0 10.1 20.2 24.5 63.3 45.9 153.6
08/05 06:50 9.7 44 4.06 -1.9 13 15 1019.8 0 10.1 20.2 24.5 63.5 46.0 153.9
08/05 06:40 9.3 46 4.14 -1.7 15 20 1019.8 0 10.3 20.4 24.9 64.6 47.1 158.0
08/05 06:30 9.3 45 4.05 -2 15 20 1019.8 0 10.1 20.3 24.6 63.7 46.1 154.3
08/05 06:20 9.6 43 3.94 -2.3 13 19 1019.8 0 9.8 20.1 24.2 62.5 44.6 149.2
08/05 06:10 9.7 43 3.97 -2.3 19 26 1019.6 0 9.9 20.1 24.2 62.7 44.9 150.2
08/05 06:00 9.9 42 3.92 -2.4 17 26 1019.6 0 9.8 20.0 24.0 62.0 44.2 147.8
08/05 05:50 9.9 42 3.92 -2.4 19 24 1019.3 0 9.8 20.0 24.0 62.0 44.2 147.8
08/05 05:40 10 41 3.85 -2.6 20 24 1019.2 0 9.6 19.9 23.7 61.3 43.4 144.7
08/05 05:30 10.2 40 3.81 -2.8 19 30 1019.1 0 9.5 19.8 23.5 60.8 42.8 142.7
08/05 05:20 10 41 3.85 -2.6 15 20 1019.2 0 9.6 19.9 23.7 61.3 43.4 144.7
08/05 05:10 9.9 42 3.92 -2.4 19 22 1019 0 9.8 20.0 24.0 62.0 44.2 147.7
08/05 05:00 10.2 40 3.81 -2.8 17 30 1019.1 0 9.5 19.8 23.5 60.8 42.8 142.7
08/05 04:50 10.2 40 3.81 -2.8 17 20 1018.8 0 9.5 19.7 23.5 60.7 42.8 142.7
08/05 04:40 10.5 38 3.69 -3.2 15 19 1018.9 0 9.3 19.5 23.0 59.4 41.3 137.4
08/05 04:30 10.5 39 3.78 -2.8 20 30 1018.4 0 9.5 19.6 23.3 60.2 42.3 140.9
08/05 04:20 10.5 38 3.69 -3.2 15 19 1018.8 0 9.3 19.5 23.0 59.4 41.2 137.4
08/05 04:10 10.4 39 3.76 -2.9 17 20 1018.5 0 9.4 19.6 23.3 60.1 42.1 140.3
08/05 04:00 10.8 38 3.76 -2.9 17 26 1018.8 0 9.4 19.6 23.2 59.8 41.9 139.7
08/05 03:50 10.7 37 3.63 -3.4 17 24 1018.4 0 9.1 19.4 22.7 58.7 40.5 134.6
08/05 03:40 11.1 36 3.63 -3.4 17 22 1018.6 0 9.1 19.3 22.6 58.4 40.3 134.0
08/05 03:30 10.9 36 3.58 -3.6 15 24 1018.5 0 9.0 19.3 22.5 58.1 39.8 132.3
08/05 03:20 11 36 3.6 -3.5 17 22 1018.5 0 9.1 19.3 22.5 58.2 40.0 132.9
08/05 03:10 10.9 36 3.58 -3.6 11 19 1018.3 0 9.0 19.3 22.5 58.1 39.8 132.3
08/05 03:00 11.1 35 3.53 -3.8 9 19 1018.5 0 8.9 19.2 22.3 57.5 39.1 130.0
08/05 02:50 11.5 34 3.51 -3.8 15 22 1018.3 0 8.9 19.0 22.1 57.0 38.7 128.6
08/05 02:40 11.7 33 3.45 -4 13 19 1018.4 0 8.7 18.9 21.9 56.4 38.0 125.9
08/05 02:30 11.9 33 3.5 -3.8 15 20 1018.3 0 8.8 19.0 22.0 56.7 38.4 127.6
08/05 02:20 11.9 33 3.5 -3.8 17 19 1018.1 0 8.8 18.9 22.0 56.6 38.4 127.6
08/05 02:10 11.9 33 3.5 -3.8 13 19 1018.3 0 8.8 19.0 22.0 56.7 38.4 127.6
08/05 02:00 11.8 34 3.58 -3.5 15 22 1018.1 0 9.0 19.1 22.2 57.4 39.3 130.8
08/05 01:50 12 34 3.62 -3.4 15 19 1018.2 0 9.1 19.1 22.3 57.6 39.7 132.1
08/05 01:40 12 35 3.73 -3 13 17 1018.3 0 9.3 19.2 22.7 58.6 40.9 136.4
08/05 01:30 12.3 33 3.58 -3.5 15 24 1018.2 0 9.0 19.0 22.1 57.1 39.1 130.1
08/05 01:20 12.8 32 3.58 -3.5 19 22 1018.1 0 9.0 18.9 22.0 56.7 38.9 129.3
08/05 01:10 12.6 33 3.65 -3.2 15 19 1018 0 9.1 19.0 22.3 57.5 39.7 132.3
08/05 01:00 12.7 32 3.56 -3.5 15 22 1018 0 8.9 18.9 21.9 56.6 38.7 128.6
08/05 00:50 13 32 3.63 -3.3 15 19 1018 0 9.1 18.9 22.1 57.0 39.3 130.9
08/05 00:40 13.4 31 3.6 -3.4 22 30 1017.9 0 9.0 18.8 21.9 56.5 38.8 129.1
08/05 00:20 13 36 4.08 -1.7 9 11 1018 0 10.0 19.5 23.6 61.0 44.3 148.4
08/05 00:10 13.3 37 4.27 -1.1 9 11 1018 0 10.4 19.7 24.1 62.5 46.2 155.3
08/05 00:00 13.6 36 4.24 -1.2 13 20 1017.8 0 10.3 19.6 24.0 62.0 45.7 153.6
07/05 23:50 13.9 35 4.2 -1.3 13 20 1018.1 0 10.3 19.5 23.7 61.5 45.1 151.5
07/05 23:40 13.9 36 4.32 -0.9 17 20 1018 0 10.5 19.6 24.1 62.5 46.5 156.2
07/05 23:30 14.1 36 4.37 -0.7 20 35 1017.7 0 10.6 19.7 24.2 62.8 46.9 157.7
07/05 23:20 13.9 40 4.8 0.5 15 22 1017.8 0 11.5 20.3 25.8 66.9 51.9 175.2
07/05 23:10 14.2 41 5.01 1.2 24 32 1017.5 0 12.0 20.5 26.4 68.6 54.1 182.9
07/05 23:00 14.2 46 5.62 2.8 19 26 1017.6 0 13.2 21.4 28.5 74.3 61.1 207.8
07/05 22:50 15 45 5.77 3.2 17 20 1017.7 0 13.5 21.4 28.8 75.0 62.3 211.9
07/05 22:40 15.3 45 5.88 3.5 19 22 1017.5 0 13.7 21.5 29.1 75.7 63.3 215.6
07/05 22:30 15.3 48 6.27 4.4 22 32 1017.2 0 14.6 22.1 30.4 79.4 67.9 231.7
07/05 22:20 15.9 46 6.23 4.3 24 35 1017.1 0 14.5 21.9 30.1 78.4 66.9 228.3
07/05 22:10 16.2 46 6.34 4.6 26 33 1017 0 14.7 21.9 30.4 79.2 67.9 232.0
07/05 22:00 16.4 46 6.42 4.8 19 30 1017.1 0 14.8 22.0 30.6 79.8 68.7 234.7
07/05 21:50 16.5 45 6.32 4.5 17 24 1017.3 0 14.6 21.8 30.2 78.7 67.5 230.4
07/05 21:40 16.7 43 6.11 4.1 15 19 1017.1 0 14.2 21.5 29.4 76.6 64.8 221.2
07/05 21:30 17 42 6.08 4 13 20 1016.9 0 14.1 21.4 29.1 76.0 64.3 219.1
07/05 21:20 16.8 41 5.86 3.5 11 15 1017 0 13.7 21.1 28.5 74.1 61.9 210.8
07/05 21:10 17.1 41 5.97 3.8 13 17 1016.7 0 13.9 21.2 28.7 74.8 62.9 214.4
07/05 21:00 17.6 39 5.85 3.5 15 22 1016.4 0 13.6 20.9 28.1 73.3 61.1 208.2
07/05 20:50 17.8 38 5.77 3.3 13 15 1016.3 0 13.4 20.7 27.8 72.3 60.1 204.5
07/05 20:40 17.8 39 5.92 3.7 13 17 1016.1 0 13.7 20.9 28.3 73.7 61.8 210.4
07/05 20:30 17.9 39 5.95 3.8 15 26 1015.7 0 13.8 20.9 28.3 73.8 62.0 211.3
07/05 20:20 18.1 38 5.87 3.6 15 19 1015.5 0 13.6 20.8 28.0 72.9 60.9 207.6
07/05 20:10 17.9 39 5.95 3.8 20 28 1015.2 0 13.8 20.9 28.3 73.8 62.0 211.2
07/05 20:00 18.1 38 5.87 3.6 15 20 1015.2 0 13.6 20.8 28.0 72.9 60.9 207.5
07/05 19:50 18 38 5.84 3.5 13 20 1015.1 0 13.6 20.8 27.9 72.7 60.6 206.6

Last Refresh: 08-May-2026 12:08:30

Bureau of Meteorology